sensor_id;sensor_type;location;lat;lon;timestamp;pressure;altitude;pressure_sealevel;temperature;humidity
28921;BME280;16035;53.594;9.952;2023-06-22T00:00:08;101888.56;;;20.05;56.34
28921;BME280;16035;53.594;9.952;2023-06-22T00:02:12;101888.56;;;20.05;56.29
28921;BME280;16035;53.594;9.952;2023-06-22T00:04:12;101893.53;;;20.03;56.52
28921;BME280;16035;53.594;9.952;2023-06-22T00:06:12;101893.03;;;20.01;56.56
28921;BME280;16035;53.594;9.952;2023-06-22T00:08:13;101891.66;;;19.98;56.60
28921;BME280;16035;53.594;9.952;2023-06-22T00:10:14;101891.97;;;19.97;56.89
28921;BME280;16035;53.594;9.952;2023-06-22T00:12:14;101893.38;;;19.94;56.80
28921;BME280;16035;53.594;9.952;2023-06-22T00:14:14;101892.03;;;19.91;57.07
28921;BME280;16035;53.594;9.952;2023-06-22T00:16:14;101880.22;;;19.86;57.14
28921;BME280;16035;53.594;9.952;2023-06-22T00:18:15;101881.66;;;19.83;57.26
28921;BME280;16035;53.594;9.952;2023-06-22T00:20:15;101880.84;;;19.83;57.15
28921;BME280;16035;53.594;9.952;2023-06-22T00:22:16;101884.19;;;19.80;57.40
28921;BME280;16035;53.594;9.952;2023-06-22T00:24:17;101888.88;;;19.79;57.33
28921;BME280;16035;53.594;9.952;2023-06-22T00:26:17;101883.94;;;19.76;57.70
28921;BME280;16035;53.594;9.952;2023-06-22T00:28:18;101895.28;;;19.75;57.75
28921;BME280;16035;53.594;9.952;2023-06-22T00:30:19;101899.44;;;19.72;57.90
28921;BME280;16035;53.594;9.952;2023-06-22T00:32:19;101900.81;;;19.75;57.98
28921;BME280;16035;53.594;9.952;2023-06-22T00:34:19;101896.91;;;19.76;57.81
28921;BME280;16035;53.594;9.952;2023-06-22T00:36:20;101897.75;;;19.76;58.05
28921;BME280;16035;53.594;9.952;2023-06-22T00:38:20;101905.19;;;19.76;58.17
28921;BME280;16035;53.594;9.952;2023-06-22T00:40:20;101905.19;;;19.76;58.01
28921;BME280;16035;53.594;9.952;2023-06-22T00:42:22;101896.09;;;19.75;58.29
28921;BME280;16035;53.594;9.952;2023-06-22T00:44:22;101895.28;;;19.75;58.52
28921;BME280;16035;53.594;9.952;2023-06-22T00:46:23;101900.81;;;19.75;58.35
28921;BME280;16035;53.594;9.952;2023-06-22T00:48:25;101897.22;;;19.74;58.57
28921;BME280;16035;53.594;9.952;2023-06-22T00:50:30;101901.91;;;19.74;58.62
28921;BME280;16035;53.594;9.952;2023-06-22T00:52:33;101906.91;;;19.72;58.50
28921;BME280;16035;53.594;9.952;2023-06-22T00:54:36;101900.88;;;19.69;58.65
28921;BME280;16035;53.594;9.952;2023-06-22T00:56:36;101905.84;;;19.67;59.48
28921;BME280;16035;53.594;9.952;2023-06-22T00:58:38;101900.31;;;19.67;59.05
28921;BME280;16035;53.594;9.952;2023-06-22T01:00:42;101905.03;;;19.67;59.05
28921;BME280;16035;53.594;9.952;2023-06-22T01:02:43;101906.16;;;19.66;59.11
28921;BME280;16035;53.594;9.952;2023-06-22T01:04:45;101915.75;;;19.68;59.20
28921;BME280;16035;53.594;9.952;2023-06-22T01:07:00;101905.84;;;19.67;59.64
28921;BME280;16035;53.594;9.952;2023-06-22T01:09:15;101907.47;;;19.68;59.83
28921;BME280;16035;53.594;9.952;2023-06-22T01:11:19;101909.72;;;19.66;59.41
28921;BME280;16035;53.594;9.952;2023-06-22T01:15:42;101903.38;;;19.66;59.82
28921;BME280;16035;53.594;9.952;2023-06-22T01:17:48;101898.44;;;19.63;59.68
28921;BME280;16035;53.594;9.952;2023-06-22T01:19:50;101907.84;;;19.62;59.77
28921;BME280;16035;53.594;9.952;2023-06-22T01:21:58;101909.22;;;19.59;59.89
28921;BME280;16035;53.594;9.952;2023-06-22T01:24:22;101900.41;;;19.57;60.38
28921;BME280;16035;53.594;9.952;2023-06-22T01:26:45;101900.72;;;19.56;60.61
28921;BME280;16035;53.594;9.952;2023-06-22T01:28:52;101900.13;;;19.59;60.05
28921;BME280;16035;53.594;9.952;2023-06-22T01:30:53;101896.84;;;19.57;60.23
28921;BME280;16035;53.594;9.952;2023-06-22T01:33:05;101899.59;;;19.57;60.36
28921;BME280;16035;53.594;9.952;2023-06-22T01:35:12;101894.38;;;19.55;60.33
28921;BME280;16035;53.594;9.952;2023-06-22T01:37:13;101892.22;;;19.52;60.21
28921;BME280;16035;53.594;9.952;2023-06-22T01:39:14;101892.78;;;19.49;60.33
28921;BME280;16035;53.594;9.952;2023-06-22T01:41:17;101882.59;;;19.50;60.44
28921;BME280;16035;53.594;9.952;2023-06-22T01:43:18;101887.28;;;19.49;60.43
28921;BME280;16035;53.594;9.952;2023-06-22T01:45:19;101892.56;;;19.45;60.47
28921;BME280;16035;53.594;9.952;2023-06-22T01:47:23;101888.47;;;19.43;60.82
28921;BME280;16035;53.594;9.952;2023-06-22T01:49:24;101892.03;;;19.43;60.77
28921;BME280;16035;53.594;9.952;2023-06-22T01:51:25;101896.72;;;19.43;60.73
28921;BME280;16035;53.594;9.952;2023-06-22T01:53:25;101897.81;;;19.42;60.61
28921;BME280;16035;53.594;9.952;2023-06-22T01:55:25;101889.03;;;19.40;60.62
28921;BME280;16035;53.594;9.952;2023-06-22T01:57:26;101896.78;;;19.38;60.82
28921;BME280;16035;53.594;9.952;2023-06-22T02:01:37;101896.81;;;19.33;61.05
28921;BME280;16035;53.594;9.952;2023-06-22T02:03:44;101882.53;;;19.31;61.02
28921;BME280;16035;53.594;9.952;2023-06-22T02:05:52;101900.44;;;19.33;61.15
28921;BME280;16035;53.594;9.952;2023-06-22T02:08:13;101895.50;;;19.30;61.37
28921;BME280;16035;53.594;9.952;2023-06-22T02:10:19;101901.31;;;19.29;61.23
28921;BME280;16035;53.594;9.952;2023-06-22T02:12:22;101892.47;;;19.27;61.20
28921;BME280;16035;53.594;9.952;2023-06-22T02:14:24;101892.47;;;19.27;60.88
28921;BME280;16035;53.594;9.952;2023-06-22T02:16:25;101894.72;;;19.25;61.38
28921;BME280;16035;53.594;9.952;2023-06-22T02:18:29;101896.38;;;19.26;61.26
28921;BME280;16035;53.594;9.952;2023-06-22T02:20:30;101897.75;;;19.23;61.41
28921;BME280;16035;53.594;9.952;2023-06-22T02:22:30;101898.34;;;19.20;61.47
28921;BME280;16035;53.594;9.952;2023-06-22T02:24:31;101898.94;;;19.17;61.42
28921;BME280;16035;53.594;9.952;2023-06-22T02:26:32;101888.22;;;19.15;61.71
28921;BME280;16035;53.594;9.952;2023-06-22T02:28:32;101889.59;;;19.13;61.57
28921;BME280;16035;53.594;9.952;2023-06-22T02:30:33;101886.84;;;19.13;61.63
28921;BME280;16035;53.594;9.952;2023-06-22T02:32:33;101884.09;;;19.13;61.80
28921;BME280;16035;53.594;9.952;2023-06-22T02:34:34;101878.56;;;19.13;61.80
28921;BME280;16035;53.594;9.952;2023-06-22T02:36:36;101876.34;;;19.15;61.80
28921;BME280;16035;53.594;9.952;2023-06-22T02:38:37;101875.81;;;19.13;61.80
28921;BME280;16035;53.594;9.952;2023-06-22T02:40:37;101868.13;;;19.10;61.90
28921;BME280;16035;53.594;9.952;2023-06-22T02:42:39;101876.69;;;19.08;62.27
28921;BME280;16035;53.594;9.952;2023-06-22T02:44:40;101881.13;;;19.04;62.11
28921;BME280;16035;53.594;9.952;2023-06-22T02:46:40;101877.03;;;19.02;62.18
28921;BME280;16035;53.594;9.952;2023-06-22T02:48:41;101883.13;;;18.99;62.26
28921;BME280;16035;53.594;9.952;2023-06-22T02:50:41;101875.44;;;18.96;62.35
28921;BME280;16035;53.594;9.952;2023-06-22T02:52:41;101875.75;;;18.94;62.31
28921;BME280;16035;53.594;9.952;2023-06-22T02:54:41;101879.63;;;18.93;62.45
28921;BME280;16035;53.594;9.952;2023-06-22T02:56:42;101872.72;;;18.90;62.27
28921;BME280;16035;53.594;9.952;2023-06-22T02:58:44;101882.38;;;18.88;62.63
28921;BME280;16035;53.594;9.952;2023-06-22T03:00:44;101878.00;;;18.87;62.57
28921;BME280;16035;53.594;9.952;2023-06-22T03:02:45;101888.19;;;18.86;62.74
28921;BME280;16035;53.594;9.952;2023-06-22T03:04:45;101883.81;;;18.85;62.60
28921;BME280;16035;53.594;9.952;2023-06-22T03:06:48;101878.56;;;18.84;62.83
28921;BME280;16035;53.594;9.952;2023-06-22T03:08:51;101879.97;;;18.81;62.94
28921;BME280;16035;53.594;9.952;2023-06-22T03:10:51;101881.38;;;18.79;62.96
28921;BME280;16035;53.594;9.952;2023-06-22T03:12:51;101881.97;;;18.76;62.87
28921;BME280;16035;53.594;9.952;2023-06-22T03:14:52;101884.16;;;18.74;63.02
28921;BME280;16035;53.594;9.952;2023-06-22T03:16:52;101889.97;;;18.72;62.75
28921;BME280;16035;53.594;9.952;2023-06-22T03:18:53;101892.72;;;18.72;63.29
28921;BME280;16035;53.594;9.952;2023-06-22T03:20:53;101890.25;;;18.71;63.11
28921;BME280;16035;53.594;9.952;2023-06-22T03:22:54;101886.41;;;18.66;63.26
28921;BME280;16035;53.594;9.952;2023-06-22T03:24:54;101891.94;;;18.66;63.29
28921;BME280;16035;53.594;9.952;2023-06-22T03:26:54;101886.41;;;18.66;63.39
28921;BME280;16035;53.594;9.952;2023-06-22T03:28:55;101890.81;;;18.67;64.03
28921;BME280;16035;53.594;9.952;2023-06-22T03:30:57;101896.31;;;18.67;63.24
28921;BME280;16035;53.594;9.952;2023-06-22T03:32:58;101894.69;;;18.66;63.55
28921;BME280;16035;53.594;9.952;2023-06-22T03:34:58;101899.06;;;18.67;63.66
28921;BME280;16035;53.594;9.952;2023-06-22T03:36:59;101900.44;;;18.65;63.63
28921;BME280;16035;53.594;9.952;2023-06-22T03:38:59;101905.13;;;18.64;63.65
28921;BME280;16035;53.594;9.952;2023-06-22T03:40:59;101906.78;;;18.65;63.74
28921;BME280;16035;53.594;9.952;2023-06-22T03:43:00;101910.91;;;18.68;63.67
28921;BME280;16035;53.594;9.952;2023-06-22T03:45:00;101913.94;;;18.66;63.75
28921;BME280;16035;53.594;9.952;2023-06-22T03:47:01;101912.84;;;18.67;63.95
28921;BME280;16035;53.594;9.952;2023-06-22T03:49:02;101911.72;;;18.68;63.86
28921;BME280;16035;53.594;9.952;2023-06-22T03:51:03;101915.56;;;18.73;63.99
28921;BME280;16035;53.594;9.952;2023-06-22T03:53:03;101913.34;;;18.75;64.07
28921;BME280;16035;53.594;9.952;2023-06-22T03:55:04;101914.72;;;18.77;64.08
28921;BME280;16035;53.594;9.952;2023-06-22T03:57:05;101907.53;;;18.81;64.19
28921;BME280;16035;53.594;9.952;2023-06-22T03:59:06;101909.72;;;18.84;63.97
28921;BME280;16035;53.594;9.952;2023-06-22T04:01:06;101918.50;;;18.86;64.13
28921;BME280;16035;53.594;9.952;2023-06-22T04:03:06;101917.09;;;18.89;64.13
28921;BME280;16035;53.594;9.952;2023-06-22T04:05:08;101919.81;;;18.94;64.19
28921;BME280;16035;53.594;9.952;2023-06-22T04:07:09;101920.56;;;19.00;63.85
28921;BME280;16035;53.594;9.952;2023-06-22T04:09:09;101926.91;;;19.00;64.41
28921;BME280;16035;53.594;9.952;2023-06-22T04:11:09;101928.84;;;19.00;64.09
28921;BME280;16035;53.594;9.952;2023-06-22T04:13:10;101927.47;;;19.02;64.14
28921;BME280;16035;53.594;9.952;2023-06-22T04:15:10;101929.59;;;19.05;64.11
28921;BME280;16035;53.594;9.952;2023-06-22T04:17:12;101932.91;;;19.07;64.21
28921;BME280;16035;53.594;9.952;2023-06-22T04:19:14;101929.56;;;19.10;64.26
28921;BME280;16035;53.594;9.952;2023-06-22T04:21:17;101933.16;;;19.11;64.17
28921;BME280;16035;53.594;9.952;2023-06-22T04:23:19;101936.75;;;19.11;64.21
28921;BME280;16035;53.594;9.952;2023-06-22T04:25:20;101933.38;;;19.14;64.39
28921;BME280;16035;53.594;9.952;2023-06-22T04:27:21;101937.50;;;19.17;64.48
28921;BME280;16035;53.594;9.952;2023-06-22T04:29:23;101932.25;;;19.21;64.52
28921;BME280;16035;53.594;9.952;2023-06-22T04:31:28;101937.44;;;19.22;64.36
28921;BME280;16035;53.594;9.952;2023-06-22T04:33:32;101939.63;;;19.25;64.42
28921;BME280;16035;53.594;9.952;2023-06-22T04:35:32;101940.47;;;19.26;64.44
28921;BME280;16035;53.594;9.952;2023-06-22T04:37:33;101939.88;;;19.29;64.43
28921;BME280;16035;53.594;9.952;2023-06-22T04:39:34;101940.41;;;19.31;64.49
28921;BME280;16035;53.594;9.952;2023-06-22T04:41:34;101932.66;;;19.33;64.46
28921;BME280;16035;53.594;9.952;2023-06-22T04:43:41;101939.22;;;19.37;64.46
28921;BME280;16035;53.594;9.952;2023-06-22T04:45:42;101946.63;;;19.41;64.48
28921;BME280;16035;53.594;9.952;2023-06-22T04:47:42;101944.41;;;19.43;64.48
28921;BME280;16035;53.594;9.952;2023-06-22T04:49:42;101942.41;;;19.49;64.35
28921;BME280;16035;53.594;9.952;2023-06-22T04:51:43;101944.28;;;19.54;64.40
28921;BME280;16035;53.594;9.952;2023-06-22T04:53:43;101942.59;;;19.58;64.15
28921;BME280;16035;53.594;9.952;2023-06-22T04:55:44;101942.88;;;19.61;63.89
28921;BME280;16035;53.594;9.952;2023-06-22T04:57:46;101931.28;;;19.64;64.13
28921;BME280;16035;53.594;9.952;2023-06-22T04:59:49;101935.91;;;19.69;64.36
28921;BME280;16035;53.594;9.952;2023-06-22T05:01:49;101939.16;;;19.71;64.29
28921;BME280;16035;53.594;9.952;2023-06-22T05:03:51;101936.66;;;19.75;64.25
28921;BME280;16035;53.594;9.952;2023-06-22T05:06:00;101939.66;;;19.78;64.19
28921;BME280;16035;53.594;9.952;2023-06-22T05:08:01;101940.72;;;19.82;64.38
28921;BME280;16035;53.594;9.952;2023-06-22T05:10:05;101939.81;;;19.87;64.13
28921;BME280;16035;53.594;9.952;2023-06-22T05:12:06;101938.09;;;19.91;64.14
28921;BME280;16035;53.594;9.952;2023-06-22T05:14:06;101941.09;;;19.94;63.89
28921;BME280;16035;53.594;9.952;2023-06-22T05:16:07;101932.53;;;19.96;63.62
28921;BME280;16035;53.594;9.952;2023-06-22T05:18:08;101938.06;;;19.96;63.19
28921;BME280;16035;53.594;9.952;2023-06-22T05:20:09;101941.91;;;19.95;62.64
28921;BME280;16035;53.594;9.952;2023-06-22T05:22:10;101943.78;;;20.00;62.98
28921;BME280;16035;53.594;9.952;2023-06-22T05:24:12;101940.97;;;20.05;63.10
28921;BME280;16035;53.594;9.952;2023-06-22T05:26:12;101947.25;;;20.10;62.83
28921;BME280;16035;53.594;9.952;2023-06-22T05:28:13;101936.72;;;20.12;62.53
28921;BME280;16035;53.594;9.952;2023-06-22T05:30:14;101941.06;;;20.18;62.42
28921;BME280;16035;53.594;9.952;2023-06-22T05:32:16;101942.63;;;20.25;62.28
28921;BME280;16035;53.594;9.952;2023-06-22T05:34:16;101942.25;;;20.31;62.46
28921;BME280;16035;53.594;9.952;2023-06-22T05:36:17;101946.59;;;20.37;62.02
28921;BME280;16035;53.594;9.952;2023-06-22T05:38:19;101947.94;;;20.40;61.53
28921;BME280;16035;53.594;9.952;2023-06-22T05:40:20;101949.59;;;20.41;61.39
28921;BME280;16035;53.594;9.952;2023-06-22T05:42:21;101953.69;;;20.43;61.84
28921;BME280;16035;53.594;9.952;2023-06-22T05:44:21;101950.06;;;20.48;61.76
28921;BME280;16035;53.594;9.952;2023-06-22T05:46:22;101945.06;;;20.50;61.84
28921;BME280;16035;53.594;9.952;2023-06-22T05:48:23;101940.28;;;20.56;61.86
28921;BME280;16035;53.594;9.952;2023-06-22T05:50:24;101942.47;;;20.59;61.28
28921;BME280;16035;53.594;9.952;2023-06-22T05:52:24;101945.41;;;20.62;61.62
28921;BME280;16035;53.594;9.952;2023-06-22T05:54:24;101947.00;;;20.68;61.58
28921;BME280;16035;53.594;9.952;2023-06-22T05:56:25;101943.03;;;20.75;61.54
28921;BME280;16035;53.594;9.952;2023-06-22T05:58:25;101941.84;;;20.81;61.82
28921;BME280;16035;53.594;9.952;2023-06-22T06:00:25;101932.03;;;20.88;61.52
28921;BME280;16035;53.594;9.952;2023-06-22T06:02:26;101938.31;;;20.94;61.42
28921;BME280;16035;53.594;9.952;2023-06-22T06:04:26;101940.44;;;20.97;60.64
28921;BME280;16035;53.594;9.952;2023-06-22T06:06:26;101936.34;;;20.94;59.73
28921;BME280;16035;53.594;9.952;2023-06-22T06:08:28;101935.22;;;20.95;60.28
28921;BME280;16035;53.594;9.952;2023-06-22T06:10:29;101932.69;;;20.99;59.73
28921;BME280;16035;53.594;9.952;2023-06-22T06:12:32;101937.31;;;21.04;59.96
28921;BME280;16035;53.594;9.952;2023-06-22T06:14:33;101933.84;;;21.12;59.96
28921;BME280;16035;53.594;9.952;2023-06-22T06:16:33;101935.38;;;21.18;59.92
28921;BME280;16035;53.594;9.952;2023-06-22T06:18:33;101930.59;;;21.24;59.92
28921;BME280;16035;53.594;9.952;2023-06-22T06:20:34;101934.91;;;21.30;59.89
28921;BME280;16035;53.594;9.952;2023-06-22T06:22:35;101929.31;;;21.35;59.18
28921;BME280;16035;53.594;9.952;2023-06-22T06:24:36;101929.50;;;21.38;59.16
28921;BME280;16035;53.594;9.952;2023-06-22T06:26:36;101934.53;;;21.50;59.08
28921;BME280;16035;53.594;9.952;2023-06-22T06:28:36;101934.34;;;21.60;59.49
28921;BME280;16035;53.594;9.952;2023-06-22T06:30:37;101925.22;;;21.74;59.19
28921;BME280;16035;53.594;9.952;2023-06-22T06:32:37;101927.16;;;21.87;58.71
28921;BME280;16035;53.594;9.952;2023-06-22T06:34:38;101927.91;;;21.92;58.58
28921;BME280;16035;53.594;9.952;2023-06-22T06:36:38;101930.34;;;21.94;58.80
28921;BME280;16035;53.594;9.952;2023-06-22T06:38:39;101928.41;;;21.94;58.51
28921;BME280;16035;53.594;9.952;2023-06-22T06:40:39;101944.19;;;21.94;58.68
28921;BME280;16035;53.594;9.952;2023-06-22T06:42:41;101933.72;;;21.91;58.69
28921;BME280;16035;53.594;9.952;2023-06-22T06:44:42;101932.59;;;21.92;58.60
28921;BME280;16035;53.594;9.952;2023-06-22T06:46:42;101933.94;;;21.94;58.53
28921;BME280;16035;53.594;9.952;2023-06-22T06:48:42;101933.59;;;21.96;58.71
28921;BME280;16035;53.594;9.952;2023-06-22T06:50:43;101929.72;;;21.97;58.81
28921;BME280;16035;53.594;9.952;2023-06-22T06:52:44;101927.25;;;21.95;59.02
28921;BME280;16035;53.594;9.952;2023-06-22T06:54:44;101925.63;;;21.94;58.74
28921;BME280;16035;53.594;9.952;2023-06-22T06:56:44;101921.84;;;21.90;57.93
28921;BME280;16035;53.594;9.952;2023-06-22T06:58:50;101927.16;;;21.87;57.61
28921;BME280;16035;53.594;9.952;2023-06-22T07:00:51;101919.38;;;21.89;57.97
28921;BME280;16035;53.594;9.952;2023-06-22T07:02:51;101923.66;;;21.95;57.92
28921;BME280;16035;53.594;9.952;2023-06-22T07:04:51;101915.25;;;22.00;58.15
28921;BME280;16035;53.594;9.952;2023-06-22T07:06:52;101921.53;;;22.06;58.18
28921;BME280;16035;53.594;9.952;2023-06-22T07:08:52;101916.97;;;22.10;57.99
28921;BME280;16035;53.594;9.952;2023-06-22T07:10:53;101903.78;;;22.20;57.63
28921;BME280;16035;53.594;9.952;2023-06-22T07:12:53;101913.38;;;22.23;57.88
28921;BME280;16035;53.594;9.952;2023-06-22T07:14:53;101913.09;;;22.25;56.75
28921;BME280;16035;53.594;9.952;2023-06-22T07:16:53;101919.94;;;22.27;56.82
28921;BME280;16035;53.594;9.952;2023-06-22T07:18:54;101921.97;;;22.35;56.68
28921;BME280;16035;53.594;9.952;2023-06-22T07:20:54;101914.56;;;22.44;56.69
28921;BME280;16035;53.594;9.952;2023-06-22T07:22:54;101912.69;;;22.54;56.70
28921;BME280;16035;53.594;9.952;2023-06-22T07:24:55;101923.22;;;22.65;55.78
28921;BME280;16035;53.594;9.952;2023-06-22T07:26:56;101905.84;;;22.74;56.02
28921;BME280;16035;53.594;9.952;2023-06-22T07:28:57;101914.72;;;22.84;55.63
28921;BME280;16035;53.594;9.952;2023-06-22T07:30:58;101911.41;;;22.96;55.82
28921;BME280;16035;53.594;9.952;2023-06-22T07:32:58;101912.56;;;23.04;55.71
28921;BME280;16035;53.594;9.952;2023-06-22T07:35:03;101909.22;;;23.15;55.49
28921;BME280;16035;53.594;9.952;2023-06-22T07:37:04;101914.31;;;23.22;55.47
28921;BME280;16035;53.594;9.952;2023-06-22T07:39:05;101917.63;;;23.33;55.35
28921;BME280;16035;53.594;9.952;2023-06-22T07:41:05;101919.63;;;23.41;55.31
28921;BME280;16035;53.594;9.952;2023-06-22T07:43:06;101919.81;;;23.44;54.61
28921;BME280;16035;53.594;9.952;2023-06-22T07:45:07;101915.25;;;23.49;54.33
28921;BME280;16035;53.594;9.952;2023-06-22T07:47:10;101920.19;;;23.60;54.31
28921;BME280;16035;53.594;9.952;2023-06-22T07:49:11;101921.25;;;23.73;54.31
28921;BME280;16035;53.594;9.952;2023-06-22T07:51:11;101917.72;;;23.90;54.00
28921;BME280;16035;53.594;9.952;2023-06-22T07:53:15;101919.19;;;24.05;53.81
28921;BME280;16035;53.594;9.952;2023-06-22T07:55:15;101916.09;;;24.06;53.43
28921;BME280;16035;53.594;9.952;2023-06-22T07:57:15;101919.19;;;24.05;53.13
28921;BME280;16035;53.594;9.952;2023-06-22T07:59:16;101920.69;;;24.02;53.45
28921;BME280;16035;53.594;9.952;2023-06-22T08:01:16;101918.53;;;23.99;52.77
28921;BME280;16035;53.594;9.952;2023-06-22T08:03:17;101917.03;;;23.93;52.94
28921;BME280;16035;53.594;9.952;2023-06-22T08:05:17;101922.59;;;23.84;52.13
28921;BME280;16035;53.594;9.952;2023-06-22T08:07:18;101918.16;;;23.83;52.16
28921;BME280;16035;53.594;9.952;2023-06-22T08:09:20;101915.91;;;23.85;52.41
28921;BME280;16035;53.594;9.952;2023-06-22T08:11:20;101914.63;;;24.00;52.75
28921;BME280;16035;53.594;9.952;2023-06-22T08:13:22;101925.28;;;24.15;52.87
28921;BME280;16035;53.594;9.952;2023-06-22T08:15:22;101914.31;;;24.36;53.14
28921;BME280;16035;53.594;9.952;2023-06-22T08:17:24;101904.88;;;24.63;52.66
28921;BME280;16035;53.594;9.952;2023-06-22T08:19:24;101911.75;;;24.75;52.35
28921;BME280;16035;53.594;9.952;2023-06-22T08:21:25;101910.75;;;24.70;52.39
28921;BME280;16035;53.594;9.952;2023-06-22T08:23:25;101917.94;;;24.80;51.37
28921;BME280;16035;53.594;9.952;2023-06-22T08:25:25;101912.81;;;25.00;51.39
28921;BME280;16035;53.594;9.952;2023-06-22T08:27:26;101909.00;;;25.30;51.91
28921;BME280;16035;53.594;9.952;2023-06-22T08:29:28;101912.19;;;25.58;50.80
28921;BME280;16035;53.594;9.952;2023-06-22T08:31:29;101906.41;;;25.63;50.77
28921;BME280;16035;53.594;9.952;2023-06-22T08:33:29;101899.84;;;25.68;50.93
28921;BME280;16035;53.594;9.952;2023-06-22T08:35:30;101894.31;;;25.89;50.40
28921;BME280;16035;53.594;9.952;2023-06-22T08:37:31;101890.41;;;26.11;50.33
28921;BME280;16035;53.594;9.952;2023-06-22T08:39:31;101895.56;;;26.42;49.96
28921;BME280;16035;53.594;9.952;2023-06-22T08:41:31;101895.97;;;26.74;49.37
28921;BME280;16035;53.594;9.952;2023-06-22T08:43:32;101899.25;;;26.76;47.36
28921;BME280;16035;53.594;9.952;2023-06-22T08:45:32;101909.47;;;26.51;46.91
28921;BME280;16035;53.594;9.952;2023-06-22T08:47:32;101904.78;;;26.21;47.41
28921;BME280;16035;53.594;9.952;2023-06-22T08:49:33;101892.84;;;25.91;47.88
28921;BME280;16035;53.594;9.952;2023-06-22T08:51:33;101898.03;;;25.72;48.40
28921;BME280;16035;53.594;9.952;2023-06-22T08:53:34;101900.53;;;25.56;48.51
28921;BME280;16035;53.594;9.952;2023-06-22T08:55:35;101878.03;;;25.40;48.73
28921;BME280;16035;53.594;9.952;2023-06-22T08:57:35;101884.78;;;25.31;49.12
28921;BME280;16035;53.594;9.952;2023-06-22T08:59:38;101881.53;;;25.29;49.50
28921;BME280;16035;53.594;9.952;2023-06-22T09:01:39;101878.84;;;25.70;49.82
28921;BME280;16035;53.594;9.952;2023-06-22T09:03:39;101882.78;;;26.20;49.19
28921;BME280;16035;53.594;9.952;2023-06-22T09:05:40;101876.06;;;26.63;48.78
28921;BME280;16035;53.594;9.952;2023-06-22T09:07:40;101875.81;;;27.01;48.51
28921;BME280;16035;53.594;9.952;2023-06-22T09:09:40;101868.78;;;27.40;48.34
28921;BME280;16035;53.594;9.952;2023-06-22T09:11:41;101864.47;;;27.67;47.75
28921;BME280;16035;53.594;9.952;2023-06-22T09:13:41;101861.69;;;27.92;47.10
28921;BME280;16035;53.594;9.952;2023-06-22T09:15:42;101863.16;;;28.14;45.94
28921;BME280;16035;53.594;9.952;2023-06-22T09:17:43;101858.22;;;28.23;45.31
28921;BME280;16035;53.594;9.952;2023-06-22T09:19:43;101853.72;;;28.46;44.98
28921;BME280;16035;53.594;9.952;2023-06-22T09:21:43;101861.69;;;28.44;43.71
28921;BME280;16035;53.594;9.952;2023-06-22T09:23:44;101853.84;;;28.94;44.49
28921;BME280;16035;53.594;9.952;2023-06-22T09:25:46;101853.50;;;29.11;43.09
28921;BME280;16035;53.594;9.952;2023-06-22T09:27:47;101851.31;;;28.89;40.95
28921;BME280;16035;53.594;9.952;2023-06-22T09:29:49;101851.59;;;29.31;41.37
28921;BME280;16035;53.594;9.952;2023-06-22T09:31:49;101849.88;;;29.58;41.63
28921;BME280;16035;53.594;9.952;2023-06-22T09:33:50;101844.56;;;29.88;41.09
28921;BME280;16035;53.594;9.952;2023-06-22T09:35:50;101849.56;;;30.14;41.24
28921;BME280;16035;53.594;9.952;2023-06-22T09:37:51;101835.44;;;30.11;39.84
28921;BME280;16035;53.594;9.952;2023-06-22T09:39:51;101833.44;;;30.50;40.30
28921;BME280;16035;53.594;9.952;2023-06-22T09:41:51;101834.84;;;30.40;38.33
28921;BME280;16035;53.594;9.952;2023-06-22T09:43:51;101826.19;;;30.68;38.20
28921;BME280;16035;53.594;9.952;2023-06-22T09:45:52;101837.13;;;30.35;37.47
28921;BME280;16035;53.594;9.952;2023-06-22T09:47:52;101827.97;;;31.00;39.35
28921;BME280;16035;53.594;9.952;2023-06-22T09:49:52;101824.94;;;31.12;38.49
28921;BME280;16035;53.594;9.952;2023-06-22T09:51:54;101819.56;;;31.49;38.34
28921;BME280;16035;53.594;9.952;2023-06-22T09:53:54;101819.28;;;31.31;37.15
28921;BME280;16035;53.594;9.952;2023-06-22T09:55:55;101828.91;;;31.57;37.65
28921;BME280;16035;53.594;9.952;2023-06-22T09:57:55;101816.41;;;31.28;35.39
28921;BME280;16035;53.594;9.952;2023-06-22T09:59:55;101820.09;;;31.58;36.70
28921;BME280;16035;53.594;9.952;2023-06-22T10:01:56;101816.75;;;31.49;35.51
28921;BME280;16035;53.594;9.952;2023-06-22T10:03:56;101819.06;;;31.20;34.24
28921;BME280;16035;53.594;9.952;2023-06-22T10:05:57;101819.91;;;31.48;36.49
28921;BME280;16035;53.594;9.952;2023-06-22T10:07:58;101823.03;;;31.95;36.75
28921;BME280;16035;53.594;9.952;2023-06-22T10:09:58;101819.19;;;31.81;34.65
28921;BME280;16035;53.594;9.952;2023-06-22T10:11:58;101813.00;;;32.32;36.26
28921;BME280;16035;53.594;9.952;2023-06-22T10:13:58;101819.44;;;32.29;35.02
28921;BME280;16035;53.594;9.952;2023-06-22T10:16:00;101807.03;;;32.70;36.14
28921;BME280;16035;53.594;9.952;2023-06-22T10:18:01;101807.19;;;32.88;35.44
28921;BME280;16035;53.594;9.952;2023-06-22T10:20:02;101808.94;;;32.63;33.73
28921;BME280;16035;53.594;9.952;2023-06-22T10:22:07;101810.94;;;33.00;35.43
28921;BME280;16035;53.594;9.952;2023-06-22T10:24:07;101802.88;;;32.98;34.10
28921;BME280;16035;53.594;9.952;2023-06-22T10:26:07;101797.84;;;33.25;34.92
28921;BME280;16035;53.594;9.952;2023-06-22T10:28:07;101805.31;;;33.00;33.82
28921;BME280;16035;53.594;9.952;2023-06-22T10:30:12;101808.38;;;33.32;34.41
28921;BME280;16035;53.594;9.952;2023-06-22T10:32:15;101802.41;;;33.44;33.55
28921;BME280;16035;53.594;9.952;2023-06-22T10:34:15;101801.09;;;33.31;33.82
28921;BME280;16035;53.594;9.952;2023-06-22T10:36:16;101794.16;;;33.14;33.04
28921;BME280;16035;53.594;9.952;2023-06-22T10:38:16;101797.34;;;32.68;34.15